Terminal Aerodrome Forecast
Issued by NWS

Home | Current Version | Previous Version | Text Only | Print | Product List | Glossary Off
Versions: 1 2 3 4 5 6 7 8 9 10 11 12 13 14 15 16 17 18 19 20 21 22 23 24 25 26 27 28 29 30 31

000
FTUS43 KABR 211730
TAFATY
TAF
KATY 211730Z 2118/2218 01007KT P6SM VCSH OVC050
     FM212300 02011KT P6SM VCSH OVC050
     FM220600 02013KT P6SM VCSH OVC030
     FM220800 02013G20KT P6SM OVC015
     FM221300 01017G24KT 6SM BR BKN010=

USA.gov is the U.S. government's official web portal to all federal, state and local government web resources and services.